Time;durP1;ratioP1;P1;durP2;ratioP2;P2;SDS_P1;SDS_P2;PMS_P1;PMS_P2;Temp;Humidity;BMP_temperature;BMP_pressure;BME280_temperature;BME280_humidity;BME280_pressure;Samples;Min_cycle;Max_cycle;Signal;HPM_P1;HPM_P2
2023/08/17 00:01:20;;;;;;;7.70;4.83;;;;;;;;;;5027274;28;20041;-57
2023/08/17 00:03:45;;;;;;;9.00;4.33;;;;;;;;;;5026706;28;20038;-56
2023/08/17 00:06:10;;;;;;;10.10;4.67;;;;;;;;;;5031123;28;20307;-56
2023/08/17 00:08:35;;;;;;;7.13;4.90;;;;;;;;;;5031558;28;20126;-56
2023/08/17 00:11:01;;;;;;;10.47;5.00;;;;;;;;;;5047121;28;20036;-57
2023/08/17 00:13:26;;;;;;;6.57;4.63;;;;;;;;;;5007221;28;20292;-56
2023/08/17 00:15:51;;;;;;;8.00;5.20;;;;;;;;;;5026396;28;20112;-56
2023/08/17 00:18:16;;;;;;;7.47;4.90;;;;;;;;;;5009069;28;20033;-57
2023/08/17 00:20:41;;;;;;;9.60;5.03;;;;;;;;;;5018912;28;20037;-56
2023/08/17 00:23:07;;;;;;;9.00;5.20;;;;;;;;;;5047296;28;20726;-56
2023/08/17 00:25:32;;;;;;;6.93;4.13;;;;;;;;;;5027853;28;20120;-56
2023/08/17 00:27:57;;;;;;;9.90;5.23;;;;;;;;;;5036803;28;20119;-56
2023/08/17 00:30:22;;;;;;;9.13;5.03;;;;;;;;;;5026820;28;20069;-55
2023/08/17 00:32:48;;;;;;;7.40;4.40;;;;;;;;;;5026666;28;20422;-56
2023/08/17 00:35:13;;;;;;;8.27;4.63;;;;;;;;;;5008158;28;20280;-55
2023/08/17 00:37:38;;;;;;;8.67;4.40;;;;;;;;;;5026788;28;20560;-56
2023/08/17 00:40:04;;;;;;;8.07;4.05;;;;;;;;;;5026586;28;20713;-56
2023/08/17 00:42:29;;;;;;;10.10;4.55;;;;;;;;;;5026399;28;20057;-56
2023/08/17 00:44:54;;;;;;;5.13;3.85;;;;;;;;;;5025890;28;20033;-56
2023/08/17 00:47:19;;;;;;;6.07;4.27;;;;;;;;;;5022626;28;20080;-55
2023/08/17 00:49:45;;;;;;;10.63;4.30;;;;;;;;;;5007161;28;20113;-55
2023/08/17 00:52:10;;;;;;;6.45;4.00;;;;;;;;;;4991215;28;20042;-56
2023/08/17 00:54:35;;;;;;;6.73;4.00;;;;;;;;;;5018490;28;20026;-56
2023/08/17 00:57:01;;;;;;;7.03;4.00;;;;;;;;;;5011979;28;20061;-55
2023/08/17 00:59:26;;;;;;;8.17;3.77;;;;;;;;;;5036711;28;20037;-56
2023/08/17 01:01:51;;;;;;;7.87;3.53;;;;;;;;;;5045941;28;20286;-56
2023/08/17 01:04:16;;;;;;;9.00;4.28;;;;;;;;;;5039448;28;20295;-55
2023/08/17 01:06:42;;;;;;;7.60;4.10;;;;;;;;;;5026357;28;20029;-55
2023/08/17 01:09:07;;;;;;;5.87;4.00;;;;;;;;;;5008156;28;20112;-56
2023/08/17 01:11:48;;;;;;;5.23;3.43;;;;;;;;;;5027694;28;20788;-56
2023/08/17 01:14:13;;;;;;;5.82;3.30;;;;;;;;;;5016455;28;20104;-56
2023/08/17 01:16:40;;;;;;;6.23;3.50;;;;;;;;;;5025727;28;20061;-57
2023/08/17 01:19:06;;;;;;;4.95;3.47;;;;;;;;;;5015281;28;20038;-58
2023/08/17 01:21:42;;;;;;;5.85;3.42;;;;;;;;;;4988604;28;20093;-56
2023/08/17 01:24:08;;;;;;;6.40;3.05;;;;;;;;;;5008747;28;20034;-56
2023/08/17 01:26:33;;;;;;;8.18;3.30;;;;;;;;;;5025271;28;20052;-63
2023/08/17 01:28:58;;;;;;;7.15;3.47;;;;;;;;;;5008110;28;20427;-57
2023/08/17 01:31:25;;;;;;;6.03;3.40;;;;;;;;;;5007732;28;20068;-58
2023/08/17 01:33:52;;;;;;;5.18;3.22;;;;;;;;;;5007868;28;20515;-58
2023/08/17 01:36:17;;;;;;;4.57;2.75;;;;;;;;;;5039531;28;20056;-56
2023/08/17 01:38:42;;;;;;;3.93;2.87;;;;;;;;;;5036807;28;20033;-56
2023/08/17 01:41:12;;;;;;;5.70;3.10;;;;;;;;;;5025452;28;20040;-55
2023/08/17 01:43:38;;;;;;;;;;;;;;;;;;5025937;28;20287;-55
2023/08/17 01:46:03;;;;;;;5.00;2.92;;;;;;;;;;5035911;28;19920;-56
2023/08/17 01:48:28;;;;;;;6.70;3.30;;;;;;;;;;5039745;28;20033;-56
2023/08/17 01:50:53;;;;;;;4.87;3.00;;;;;;;;;;5037057;28;20291;-56
2023/08/17 01:53:18;;;;;;;4.70;2.97;;;;;;;;;;5044914;28;20144;-55
2023/08/17 01:55:44;;;;;;;7.03;3.47;;;;;;;;;;5031686;28;20284;-56
2023/08/17 01:58:09;;;;;;;6.00;2.90;;;;;;;;;;5025119;28;20631;-56
2023/08/17 02:00:34;;;;;;;6.90;3.13;;;;;;;;;;5025047;28;20276;-57
2023/08/17 02:02:59;;;;;;;7.53;3.33;;;;;;;;;;5007439;28;20059;-56
2023/08/17 02:05:28;;;;;;;4.43;2.73;;;;;;;;;;5029672;28;20120;-55
2023/08/17 02:07:53;;;;;;;6.35;2.67;;;;;;;;;;5007118;28;20034;-56
2023/08/17 02:10:18;;;;;;;5.10;2.60;;;;;;;;;;5025097;28;20141;-56
2023/08/17 02:12:43;;;;;;;4.50;2.97;;;;;;;;;;5025208;28;20045;-55
2023/08/17 02:15:09;;;;;;;5.37;2.87;;;;;;;;;;5024457;28;20052;-57
2023/08/17 02:17:34;;;;;;;5.75;2.92;;;;;;;;;;5025214;28;20049;-56
2023/08/17 02:19:59;;;;;;;6.63;2.60;;;;;;;;;;5024057;28;20045;-57
2023/08/17 02:22:24;;;;;;;3.83;2.67;;;;;;;;;;5025667;28;20041;-56
2023/08/17 02:24:50;;;;;;;5.57;2.97;;;;;;;;;;5025311;28;20279;-56
2023/08/17 02:27:15;;;;;;;4.68;2.92;;;;;;;;;;5024651;28;20095;-57
2023/08/17 02:29:40;;;;;;;3.83;2.57;;;;;;;;;;5024810;28;20025;-55
2023/08/17 02:32:05;;;;;;;6.37;2.70;;;;;;;;;;5024772;28;20328;-54
2023/08/17 02:34:30;;;;;;;4.60;2.70;;;;;;;;;;5025392;28;20068;-56
2023/08/17 02:36:56;;;;;;;5.90;2.70;;;;;;;;;;5024851;28;20067;-55
2023/08/17 02:39:21;;;;;;;6.53;2.93;;;;;;;;;;5024962;28;20045;-55
2023/08/17 02:41:49;;;;;;;4.53;3.03;;;;;;;;;;5007185;28;20276;-56
2023/08/17 02:44:14;;;;;;;6.32;2.85;;;;;;;;;;5024898;28;20506;-59
2023/08/17 02:46:39;;;;;;;6.53;2.80;;;;;;;;;;5024258;28;20071;-56
2023/08/17 02:49:04;;;;;;;6.80;2.95;;;;;;;;;;5024607;28;20792;-55
2023/08/17 02:51:30;;;;;;;6.43;2.70;;;;;;;;;;5024696;28;20065;-54
2023/08/17 02:53:55;;;;;;;7.23;3.03;;;;;;;;;;5024958;28;20296;-57
2023/08/17 02:56:20;;;;;;;5.40;3.00;;;;;;;;;;5006645;28;20037;-56
2023/08/17 02:58:45;;;;;;;5.47;2.83;;;;;;;;;;5024090;28;20288;-56
2023/08/17 03:01:11;;;;;;;4.83;2.83;;;;;;;;;;5024658;28;20780;-55
2023/08/17 03:03:36;;;;;;;6.23;3.00;;;;;;;;;;5007022;28;20037;-57
2023/08/17 03:06:02;;;;;;;5.95;3.17;;;;;;;;;;5006478;28;20280;-55
2023/08/17 03:08:27;;;;;;;4.28;2.88;;;;;;;;;;5024600;28;20502;-55
2023/08/17 03:10:52;;;;;;;10.00;3.27;;;;;;;;;;5006474;28;20419;-55
2023/08/17 03:13:17;;;;;;;3.90;2.40;;;;;;;;;;5033932;28;20402;-56
2023/08/17 03:15:43;;;;;;;6.43;2.90;;;;;;;;;;5024834;28;20040;-55
2023/08/17 03:18:08;;;;;;;5.23;2.90;;;;;;;;;;5024669;28;20341;-55
2023/08/17 03:20:33;;;;;;;5.33;3.10;;;;;;;;;;5026927;28;20114;-56
2023/08/17 03:22:58;;;;;;;7.17;2.80;;;;;;;;;;5028473;28;20288;-55
2023/08/17 03:25:23;;;;;;;5.70;3.40;;;;;;;;;;5010248;28;20801;-56
2023/08/17 03:27:49;;;;;;;7.33;2.90;;;;;;;;;;5034530;28;20416;-56
2023/08/17 03:30:14;;;;;;;5.60;2.93;;;;;;;;;;5037841;28;20119;-55
2023/08/17 03:32:40;;;;;;;5.95;2.72;;;;;;;;;;5028373;28;20057;-56
2023/08/17 03:35:06;;;;;;;5.68;2.88;;;;;;;;;;5028489;28;20038;-54
2023/08/17 03:37:31;;;;;;;4.47;2.75;;;;;;;;;;5011314;28;20048;-56
2023/08/17 03:39:56;;;;;;;4.53;2.90;;;;;;;;;;5041756;28;20040;-56
2023/08/17 03:42:21;;;;;;;4.63;2.80;;;;;;;;;;5027763;28;20276;-56
2023/08/17 03:44:47;;;;;;;6.50;2.70;;;;;;;;;;5027686;28;20029;-55
2023/08/17 03:47:12;;;;;;;5.60;2.78;;;;;;;;;;5027206;28;20356;-56
2023/08/17 03:49:37;;;;;;;6.80;2.50;;;;;;;;;;5027495;28;20416;-57
2023/08/17 03:52:02;;;;;;;6.90;3.00;;;;;;;;;;5027017;28;20338;-56
2023/08/17 03:54:28;;;;;;;6.75;2.63;;;;;;;;;;5027634;28;20030;-56
2023/08/17 03:56:53;;;;;;;6.30;2.93;;;;;;;;;;5027187;28;20026;-55
2023/08/17 03:59:18;;;;;;;4.70;2.73;;;;;;;;;;5027390;28;20323;-57
2023/08/17 04:01:43;;;;;;;4.85;2.95;;;;;;;;;;5028065;28;20284;-56
2023/08/17 04:04:09;;;;;;;5.90;2.30;;;;;;;;;;5028498;28;20469;-56
2023/08/17 04:06:34;;;;;;;3.50;2.30;;;;;;;;;;5037992;28;20103;-56
2023/08/17 04:09:00;;;;;;;6.38;2.53;;;;;;;;;;5047201;28;20592;-55
2023/08/17 04:11:25;;;;;;;6.30;2.75;;;;;;;;;;5046988;28;20501;-56
2023/08/17 04:13:51;;;;;;;5.60;2.60;;;;;;;;;;5039124;28;20060;-56
2023/08/17 04:16:16;;;;;;;5.50;2.67;;;;;;;;;;5026900;28;20325;-56
2023/08/17 04:18:41;;;;;;;4.87;2.73;;;;;;;;;;5026474;28;20366;-56
2023/08/17 04:21:06;;;;;;;5.63;2.53;;;;;;;;;;5026895;28;20073;-56
2023/08/17 04:23:31;;;;;;;5.23;2.43;;;;;;;;;;5027036;28;20287;-55
2023/08/17 04:25:57;;;;;;;7.43;2.80;;;;;;;;;;5027283;28;20030;-56
2023/08/17 04:28:22;;;;;;;5.07;2.60;;;;;;;;;;5026727;28;21715;-55
2023/08/17 04:30:47;;;;;;;7.90;2.87;;;;;;;;;;5025765;28;20551;-55
2023/08/17 04:33:12;;;;;;;5.00;2.77;;;;;;;;;;5026544;28;20319;-56
2023/08/17 04:35:38;;;;;;;5.97;2.80;;;;;;;;;;5027090;28;20033;-55
2023/08/17 04:38:03;;;;;;;5.35;2.83;;;;;;;;;;5035828;28;20055;-56
2023/08/17 04:40:28;;;;;;;4.93;2.58;;;;;;;;;;5028202;28;20037;-55
2023/08/17 04:42:54;;;;;;;8.07;3.40;;;;;;;;;;5009240;28;20060;-56
2023/08/17 04:45:19;;;;;;;7.20;3.30;;;;;;;;;;5029323;28;20036;-55
2023/08/17 04:47:44;;;;;;;6.63;3.60;;;;;;;;;;5027119;28;20390;-58
2023/08/17 04:50:09;;;;;;;7.57;3.50;;;;;;;;;;5041772;28;20314;-57
2023/08/17 04:52:35;;;;;;;7.10;3.67;;;;;;;;;;5044395;28;20121;-58
2023/08/17 04:55:00;;;;;;;8.33;3.37;;;;;;;;;;5028219;28;20032;-56
2023/08/17 04:57:26;;;;;;;6.93;3.73;;;;;;;;;;5036004;28;20276;-55
2023/08/17 04:59:51;;;;;;;5.25;3.28;;;;;;;;;;5020926;28;20680;-56
2023/08/17 05:02:16;;;;;;;6.83;3.47;;;;;;;;;;5022346;28;20038;-56
2023/08/17 05:04:41;;;;;;;10.07;4.03;;;;;;;;;;5011477;28;20328;-56
2023/08/17 05:07:07;;;;;;;6.75;4.10;;;;;;;;;;4990678;28;20048;-56
2023/08/17 05:09:33;;;;;;;6.38;3.97;;;;;;;;;;5011265;28;20111;-57
2023/08/17 05:11:58;;;;;;;6.90;4.32;;;;;;;;;;5010756;28;20522;-57
2023/08/17 05:14:23;;;;;;;8.85;4.22;;;;;;;;;;4994309;28;20256;-57
2023/08/17 05:16:49;;;;;;;8.57;4.17;;;;;;;;;;5009599;28;20073;-57
2023/08/17 05:19:14;;;;;;;11.60;4.75;;;;;;;;;;5011900;28;20057;-57
2023/08/17 05:21:39;;;;;;;13.47;4.53;;;;;;;;;;5012660;28;20609;-57
2023/08/17 05:24:04;;;;;;;10.93;4.38;;;;;;;;;;5013653;28;20041;-57
2023/08/17 05:26:30;;;;;;;8.30;4.40;;;;;;;;;;5012023;28;20037;-57
2023/08/17 05:28:55;;;;;;;8.55;4.50;;;;;;;;;;4998892;28;20123;-58
2023/08/17 05:31:20;;;;;;;9.03;4.37;;;;;;;;;;5010187;28;20029;-58
2023/08/17 05:33:46;;;;;;;9.67;4.77;;;;;;;;;;5011122;28;20820;-61
2023/08/17 05:36:13;;;;;;;10.45;4.30;;;;;;;;;;5012027;28;20080;-57
2023/08/17 05:38:38;;;;;;;8.80;3.92;;;;;;;;;;5013319;28;20132;-57
2023/08/17 05:41:03;;;;;;;7.20;4.20;;;;;;;;;;5011218;28;20171;-57
2023/08/17 05:43:28;;;;;;;9.23;3.95;;;;;;;;;;5013449;28;20482;-58
2023/08/17 05:45:53;;;;;;;10.40;3.60;;;;;;;;;;5011893;28;20639;-57
2023/08/17 05:48:19;;;;;;;8.53;3.50;;;;;;;;;;5011880;28;20318;-58
2023/08/17 05:50:44;;;;;;;8.63;4.00;;;;;;;;;;5011010;28;20112;-57
2023/08/17 05:53:09;;;;;;;6.73;3.60;;;;;;;;;;5010094;28;20058;-58
2023/08/17 05:55:35;;;;;;;8.60;3.70;;;;;;;;;;5010581;28;20300;-57
2023/08/17 05:58:00;;;;;;;7.03;4.03;;;;;;;;;;5012458;28;20447;-57
2023/08/17 06:00:25;;;;;;;8.07;3.67;;;;;;;;;;5009433;28;20119;-57
2023/08/17 06:02:51;;;;;;;9.30;3.40;;;;;;;;;;5010044;28;20390;-57
2023/08/17 06:05:16;;;;;;;5.90;3.03;;;;;;;;;;5009649;28;20288;-56
2023/08/17 06:07:42;;;;;;;7.38;3.33;;;;;;;;;;5009971;28;20029;-56
2023/08/17 06:10:08;;;;;;;6.53;3.05;;;;;;;;;;4996927;28;20060;-57
2023/08/17 06:12:33;;;;;;;7.25;3.25;;;;;;;;;;5010661;28;20042;-57
2023/08/17 06:14:58;;;;;;;7.47;3.57;;;;;;;;;;5009645;28;20144;-57
2023/08/17 06:17:23;;;;;;;6.93;3.30;;;;;;;;;;5009330;28;20061;-57
2023/08/17 06:19:49;;;;;;;8.85;3.75;;;;;;;;;;4992586;28;20554;-58
2023/08/17 06:22:14;;;;;;;5.50;3.30;;;;;;;;;;5022163;28;20056;-56
2023/08/17 06:24:39;;;;;;;7.07;3.70;;;;;;;;;;5013636;28;20366;-57
2023/08/17 06:27:05;;;;;;;9.55;4.28;;;;;;;;;;5014573;28;20717;-57
2023/08/17 06:29:30;;;;;;;7.68;4.40;;;;;;;;;;5011750;28;20174;-57
2023/08/17 06:31:55;;;;;;;14.37;4.43;;;;;;;;;;5009888;28;20042;-57
2023/08/17 06:34:20;;;;;;;9.98;4.28;;;;;;;;;;5012123;28;20296;-58
2023/08/17 06:36:56;;;;;;;60.47;9.63;;;;;;;;;;5015752;28;20041;-58
2023/08/17 06:39:21;;;;;;;15.55;4.88;;;;;;;;;;4997786;28;20288;-56
2023/08/17 06:41:46;;;;;;;8.80;4.30;;;;;;;;;;4997236;28;20131;-55
2023/08/17 06:44:11;;;;;;;10.50;4.70;;;;;;;;;;5015763;28;20292;-58
2023/08/17 06:46:36;;;;;;;12.73;3.87;;;;;;;;;;4985028;28;20052;-56
2023/08/17 06:49:02;;;;;;;11.27;4.37;;;;;;;;;;5018496;28;20178;-55
2023/08/17 06:51:28;;;;;;;72.45;11.70;;;;;;;;;;5017829;28;20073;-56
2023/08/17 06:53:53;;;;;;;15.23;5.07;;;;;;;;;;4995519;28;20183;-55
2023/08/17 06:56:18;;;;;;;14.20;4.20;;;;;;;;;;5000668;28;20049;-56
2023/08/17 06:58:43;;;;;;;13.87;4.57;;;;;;;;;;5008603;28;20045;-56
2023/08/17 07:01:09;;;;;;;8.00;3.37;;;;;;;;;;5017664;28;20860;-57
2023/08/17 07:03:35;;;;;;;6.93;2.88;;;;;;;;;;5022360;28;20696;-55
2023/08/17 07:06:00;;;;;;;6.70;2.95;;;;;;;;;;5010904;28;20566;-56
2023/08/17 07:08:25;;;;;;;8.70;3.67;;;;;;;;;;5011915;28;20041;-56
2023/08/17 07:10:50;;;;;;;8.27;3.77;;;;;;;;;;5012602;28;20034;-56
2023/08/17 07:13:16;;;;;;;7.07;3.60;;;;;;;;;;5011899;28;20045;-56
2023/08/17 07:15:41;;;;;;;11.30;3.60;;;;;;;;;;5011485;28;20037;-56
2023/08/17 07:18:06;;;;;;;7.30;3.47;;;;;;;;;;5012829;28;20099;-57
2023/08/17 07:20:31;;;;;;;6.43;3.50;;;;;;;;;;5011556;28;20041;-55
2023/08/17 07:22:57;;;;;;;8.25;3.53;;;;;;;;;;5012538;28;20423;-56
2023/08/17 07:25:22;;;;;;;7.73;3.17;;;;;;;;;;5000640;28;20538;-56
2023/08/17 07:27:47;;;;;;;5.88;2.72;;;;;;;;;;5012128;28;20346;-57
2023/08/17 07:30:12;;;;;;;5.72;2.70;;;;;;;;;;5010752;28;20034;-57
2023/08/17 07:32:38;;;;;;;3.83;2.90;;;;;;;;;;5012058;28;20238;-56
2023/08/17 07:35:03;;;;;;;5.00;2.80;;;;;;;;;;5012086;28;20041;-56
2023/08/17 07:37:32;;;;;;;7.13;3.28;;;;;;;;;;4989778;28;20381;-59
2023/08/17 07:39:58;;;;;;;4.18;2.58;;;;;;;;;;5011714;28;20116;-56
2023/08/17 07:42:23;;;;;;;20.10;4.53;;;;;;;;;;5011738;28;21861;-57
2023/08/17 07:44:48;;;;;;;7.13;3.00;;;;;;;;;;4999872;28;20033;-57
2023/08/17 07:47:13;;;;;;;11.30;2.95;;;;;;;;;;5011420;28;20505;-56
2023/08/17 07:49:39;;;;;;;7.93;3.30;;;;;;;;;;5012127;28;20041;-57
2023/08/17 07:52:04;;;;;;;7.97;3.00;;;;;;;;;;5011550;28;20305;-57
2023/08/17 07:54:29;;;;;;;6.17;3.20;;;;;;;;;;5011895;28;20041;-57
2023/08/17 07:56:54;;;;;;;5.10;2.67;;;;;;;;;;5012313;28;20897;-57
2023/08/17 07:59:20;;;;;;;5.17;2.60;;;;;;;;;;5012691;28;20520;-57
2023/08/17 08:01:45;;;;;;;4.50;2.90;;;;;;;;;;5011899;28;20868;-57
2023/08/17 08:04:10;;;;;;;5.78;3.00;;;;;;;;;;5012882;28;20300;-57
2023/08/17 08:06:35;;;;;;;4.57;3.20;;;;;;;;;;5014400;28;20549;-56
2023/08/17 08:09:01;;;;;;;5.32;2.83;;;;;;;;;;5032867;28;20520;-56
2023/08/17 08:11:27;;;;;;;5.03;2.67;;;;;;;;;;5035094;28;20037;-56
2023/08/17 08:13:52;;;;;;;3.92;2.88;;;;;;;;;;5008714;28;20430;-57
2023/08/17 08:16:18;;;;;;;6.47;2.63;;;;;;;;;;5026952;28;20045;-55
2023/08/17 08:18:43;;;;;;;4.30;2.50;;;;;;;;;;5026106;28;20441;-55
2023/08/17 08:21:08;;;;;;;4.93;2.60;;;;;;;;;;5026246;28;20280;-55
2023/08/17 08:23:33;;;;;;;5.13;3.07;;;;;;;;;;5030556;28;20025;-56
2023/08/17 08:25:58;;;;;;;5.27;2.73;;;;;;;;;;5045406;28;20287;-57
2023/08/17 08:28:25;;;;;;;4.73;2.70;;;;;;;;;;5026805;28;20139;-56
2023/08/17 08:30:50;;;;;;;7.47;3.20;;;;;;;;;;5026290;28;20041;-57
2023/08/17 08:33:15;;;;;;;8.33;3.20;;;;;;;;;;5026148;28;20046;-58
2023/08/17 08:35:40;;;;;;;7.23;3.10;;;;;;;;;;5026990;28;20288;-57
2023/08/17 08:38:05;;;;;;;4.97;2.80;;;;;;;;;;5008856;28;20101;-57
2023/08/17 08:40:31;;;;;;;4.83;3.20;;;;;;;;;;4999090;28;20041;-57
2023/08/17 08:42:57;;;;;;;3.95;2.90;;;;;;;;;;5038624;28;20151;-57
2023/08/17 08:45:22;;;;;;;6.43;2.85;;;;;;;;;;5026740;28;20036;-57
2023/08/17 08:47:48;;;;;;;4.05;2.63;;;;;;;;;;5026684;28;20030;-56
2023/08/17 08:50:16;;;;;;;5.80;2.93;;;;;;;;;;5045187;28;20486;-56
2023/08/17 08:52:42;;;;;;;6.63;3.40;;;;;;;;;;5009364;28;20326;-58
2023/08/17 08:55:12;;;;;;;5.93;2.95;;;;;;;;;;5026373;28;20025;-56
2023/08/17 08:57:37;;;;;;;5.88;2.97;;;;;;;;;;5035207;28;20028;-57
2023/08/17 09:00:03;;;;;;;7.38;3.50;;;;;;;;;;5028140;28;20032;-57
2023/08/17 09:02:29;;;;;;;5.03;3.15;;;;;;;;;;5013656;28;20034;-57
2023/08/17 09:04:54;;;;;;;4.82;2.90;;;;;;;;;;4993151;28;20521;-56
2023/08/17 09:07:19;;;;;;;6.93;2.80;;;;;;;;;;5012749;28;20055;-55
2023/08/17 09:09:44;;;;;;;6.10;2.93;;;;;;;;;;4998395;28;20137;-56
2023/08/17 09:12:09;;;;;;;5.23;2.97;;;;;;;;;;5014292;28;20068;-57
2023/08/17 09:14:37;;;;;;;5.37;2.73;;;;;;;;;;5008733;28;20299;-55
2023/08/17 09:17:02;;;;;;;4.82;3.00;;;;;;;;;;5025221;28;20025;-56
2023/08/17 09:19:27;;;;;;;4.40;2.83;;;;;;;;;;5022310;28;20500;-55
2023/08/17 09:21:53;;;;;;;4.35;2.72;;;;;;;;;;5022743;28;20296;-56
2023/08/17 09:24:18;;;;;;;5.05;2.85;;;;;;;;;;5024764;28;20375;-55
2023/08/17 09:26:43;;;;;;;3.80;2.65;;;;;;;;;;5024412;28;20021;-56
2023/08/17 09:29:18;;;;;;;5.07;2.97;;;;;;;;;;5027868;28;20067;-56
2023/08/17 09:31:43;;;;;;;8.90;2.90;;;;;;;;;;5026225;28;20807;-55
2023/08/17 09:34:08;;;;;;;5.87;2.93;;;;;;;;;;5025507;28;20041;-56
2023/08/17 09:36:35;;;;;;;4.77;2.80;;;;;;;;;;5025682;28;20783;-56
2023/08/17 09:39:01;;;;;;;4.90;2.72;;;;;;;;;;5025244;28;20065;-56
2023/08/17 09:41:26;;;;;;;5.38;2.72;;;;;;;;;;5025419;28;20087;-55
2023/08/17 09:43:51;;;;;;;3.83;2.27;;;;;;;;;;5028979;28;20036;-56
2023/08/17 09:46:17;;;;;;;3.97;2.60;;;;;;;;;;5027449;28;20866;-56
2023/08/17 09:48:43;;;;;;;6.40;3.05;;;;;;;;;;5024270;28;20128;-55
2023/08/17 09:51:08;;;;;;;3.22;2.33;;;;;;;;;;5027070;28;20116;-56
2023/08/17 09:53:37;;;;;;;4.80;2.57;;;;;;;;;;5027299;28;20045;-56
2023/08/17 09:56:02;;;;;;;6.57;2.58;;;;;;;;;;5025275;28;20282;-55
2023/08/17 09:58:27;;;;;;;4.53;2.70;;;;;;;;;;5024781;28;20025;-55
2023/08/17 10:00:52;;;;;;;3.97;2.27;;;;;;;;;;4991002;28;20106;-57
2023/08/17 10:03:18;;;;;;;4.70;2.37;;;;;;;;;;5021530;28;20116;-57
2023/08/17 10:05:44;;;;;;;4.05;2.67;;;;;;;;;;5028446;28;20639;-56
2023/08/17 10:08:12;;;;;;;4.93;2.47;;;;;;;;;;5008690;28;20106;-56
2023/08/17 10:10:42;;;;;;;7.53;2.72;;;;;;;;;;5013479;28;20029;-56
2023/08/17 10:13:11;;;;;;;4.35;2.40;;;;;;;;;;5007768;28;20514;-57
2023/08/17 10:15:38;;;;;;;4.57;2.08;;;;;;;;;;5024336;28;20061;-57
2023/08/17 10:18:06;;;;;;;6.75;2.85;;;;;;;;;;5021567;28;20075;-56
2023/08/17 10:20:31;;;;;;;4.22;2.20;;;;;;;;;;5014712;28;20061;-56
2023/08/17 10:23:03;;;;;;;7.90;2.45;;;;;;;;;;5030360;28;20502;-60
2023/08/17 10:25:28;;;;;;;5.43;2.40;;;;;;;;;;5028707;28;20029;-56
2023/08/17 10:27:53;;;;;;;7.97;2.27;;;;;;;;;;5026509;28;20057;-55
2023/08/17 10:30:19;;;;;;;4.70;2.03;;;;;;;;;;5013021;28;20866;-56
2023/08/17 10:32:46;;;;;;;6.47;2.30;;;;;;;;;;4999042;28;20544;-56
2023/08/17 10:35:11;;;;;;;5.82;2.45;;;;;;;;;;5000922;28;20287;-56
2023/08/17 10:37:37;;;;;;;5.53;2.30;;;;;;;;;;4992763;28;20781;-57
2023/08/17 10:40:02;;;;;;;6.60;2.40;;;;;;;;;;5003453;28;20711;-56
2023/08/17 10:42:35;;;;;;;4.63;2.05;;;;;;;;;;4994568;28;20040;-57
2023/08/17 10:45:02;;;;;;;4.97;2.03;;;;;;;;;;5009475;28;20046;-56
2023/08/17 10:47:35;;;;;;;6.43;2.20;;;;;;;;;;5010172;28;20038;-55
2023/08/17 10:50:04;;;;;;;4.75;2.20;;;;;;;;;;4992617;28;20594;-56
2023/08/17 10:52:31;;;;;;;5.63;2.28;;;;;;;;;;4986636;28;20454;-56
2023/08/17 10:54:56;;;;;;;5.18;2.10;;;;;;;;;;4991876;28;20593;-55
2023/08/17 10:57:25;;;;;;;3.75;2.22;;;;;;;;;;5010267;28;20049;-57
2023/08/17 11:00:13;;;;;;;5.22;2.17;;;;;;;;;;4991866;28;20112;-56
2023/08/17 11:02:38;;;;;;;4.47;1.90;;;;;;;;;;5010407;28;20458;-56
2023/08/17 11:05:04;;;;;;;4.67;2.07;;;;;;;;;;5009690;28;20227;-55
2023/08/17 11:07:44;;;;;;;2.78;1.98;;;;;;;;;;5010493;28;20315;-57
2023/08/17 11:10:18;;;;;;;2.92;2.00;;;;;;;;;;5010559;28;20049;-57
2023/08/17 11:12:44;;;;;;;3.80;1.88;;;;;;;;;;5010934;28;20053;-57
2023/08/17 11:15:09;;;;;;;4.87;1.90;;;;;;;;;;5007496;28;20049;-57
2023/08/17 11:17:34;;;;;;;3.40;2.22;;;;;;;;;;5009386;28;20327;-55
2023/08/17 11:19:59;;;;;;;2.97;1.90;;;;;;;;;;5009560;28;20038;-57
2023/08/17 11:22:25;;;;;;;2.93;1.73;;;;;;;;;;5008133;28;20034;-57
2023/08/17 11:24:50;;;;;;;3.17;1.85;;;;;;;;;;5009107;28;20308;-58
2023/08/17 11:27:15;;;;;;;3.70;2.07;;;;;;;;;;5009739;28;20123;-56
2023/08/17 11:29:41;;;;;;;2.90;2.00;;;;;;;;;;5009047;28;20040;-58
2023/08/17 11:32:08;;;;;;;4.35;2.33;;;;;;;;;;4996939;28;20414;-56
2023/08/17 11:34:33;;;;;;;3.65;2.13;;;;;;;;;;5009019;28;20030;-56
2023/08/17 11:36:59;;;;;;;2.77;1.87;;;;;;;;;;4990106;28;20052;-58
2023/08/17 11:39:24;;;;;;;2.80;2.10;;;;;;;;;;4991561;28;20793;-56
2023/08/17 11:41:52;;;;;;;3.80;1.95;;;;;;;;;;5008452;28;20317;-58
2023/08/17 11:44:20;;;;;;;3.03;1.92;;;;;;;;;;4997214;28;20036;-58
2023/08/17 11:46:46;;;;;;;4.28;2.10;;;;;;;;;;4994632;28;20032;-56
2023/08/17 11:49:11;;;;;;;6.13;2.53;;;;;;;;;;4999091;28;20018;-57
2023/08/17 11:51:36;;;;;;;4.90;2.40;;;;;;;;;;5010974;28;20689;-57
2023/08/17 11:54:04;;;;;;;2.90;2.23;;;;;;;;;;4995149;28;20056;-56
2023/08/17 11:56:30;;;;;;;3.30;2.35;;;;;;;;;;5012075;28;20733;-57
2023/08/17 11:58:55;;;;;;;3.75;2.53;;;;;;;;;;5012058;28;20044;-57
2023/08/17 12:01:20;;;;;;;4.10;2.40;;;;;;;;;;5010163;28;20477;-58
2023/08/17 12:03:46;;;;;;;4.30;2.50;;;;;;;;;;5014477;28;20410;-57
2023/08/17 12:06:14;;;;;;;3.27;2.27;;;;;;;;;;4996328;28;20513;-57
2023/08/17 12:08:41;;;;;;;5.25;2.50;;;;;;;;;;5013654;28;20021;-57
2023/08/17 12:11:06;;;;;;;4.50;2.50;;;;;;;;;;5025443;28;20021;-57
2023/08/17 12:13:32;;;;;;;4.83;2.53;;;;;;;;;;5024796;28;20045;-57
2023/08/17 12:15:58;;;;;;;4.40;2.50;;;;;;;;;;5008667;28;20037;-57
2023/08/17 12:18:24;;;;;;;5.82;2.40;;;;;;;;;;5018668;28;20109;-58
2023/08/17 12:20:55;;;;;;;3.42;2.40;;;;;;;;;;5005000;28;20574;-57
2023/08/17 12:23:20;;;;;;;6.63;2.30;;;;;;;;;;4999387;28;20456;-57
2023/08/17 12:25:46;;;;;;;3.43;2.30;;;;;;;;;;5016433;28;20033;-57
2023/08/17 12:28:14;;;;;;;4.30;2.40;;;;;;;;;;5015372;28;20071;-57
2023/08/17 12:30:39;;;;;;;4.20;2.80;;;;;;;;;;5020773;28;20088;-57
2023/08/17 12:33:05;;;;;;;5.33;2.50;;;;;;;;;;5027057;28;20218;-56
2023/08/17 12:35:31;;;;;;;4.45;2.70;;;;;;;;;;5030711;28;20107;-57
2023/08/17 12:37:56;;;;;;;3.33;2.60;;;;;;;;;;5032070;28;20036;-54
2023/08/17 12:40:21;;;;;;;5.45;2.53;;;;;;;;;;5043586;28;20563;-55
2023/08/17 12:42:47;;;;;;;3.28;2.58;;;;;;;;;;5047591;28;20032;-56
2023/08/17 12:45:12;;;;;;;4.18;2.78;;;;;;;;;;5032751;28;20124;-56
2023/08/17 12:47:37;;;;;;;4.88;2.35;;;;;;;;;;5026623;28;20516;-56
2023/08/17 12:50:03;;;;;;;3.45;2.60;;;;;;;;;;5030228;28;20540;-56
2023/08/17 12:52:28;;;;;;;4.35;2.70;;;;;;;;;;5025242;28;20037;-56
2023/08/17 12:54:54;;;;;;;4.95;2.70;;;;;;;;;;5007830;28;20046;-56
2023/08/17 12:57:19;;;;;;;3.87;2.70;;;;;;;;;;5026599;28;20037;-57
2023/08/17 12:59:44;;;;;;;7.53;3.35;;;;;;;;;;5026166;28;20522;-56
2023/08/17 13:02:09;;;;;;;5.17;3.00;;;;;;;;;;5021360;28;20052;-56
2023/08/17 13:04:36;;;;;;;3.70;3.10;;;;;;;;;;5044764;28;20041;-57
2023/08/17 13:07:01;;;;;;;4.28;3.53;;;;;;;;;;5027252;28;20041;-57
2023/08/17 13:09:26;;;;;;;5.17;3.20;;;;;;;;;;5008388;28;20403;-57
2023/08/17 13:11:51;;;;;;;3.83;2.97;;;;;;;;;;5026133;28;20407;-57
2023/08/17 13:14:17;;;;;;;5.05;3.60;;;;;;;;;;5025674;28;20607;-57
2023/08/17 13:16:42;;;;;;;4.47;3.50;;;;;;;;;;5024790;28;20026;-56
2023/08/17 13:19:07;;;;;;;5.22;3.60;;;;;;;;;;5019597;28;20147;-56
2023/08/17 13:21:32;;;;;;;5.73;3.80;;;;;;;;;;5010959;28;20112;-56
2023/08/17 13:23:58;;;;;;;5.77;3.40;;;;;;;;;;5025808;28;20276;-57
2023/08/17 13:26:23;;;;;;;7.43;3.53;;;;;;;;;;5007730;28;20383;-56
2023/08/17 13:28:48;;;;;;;4.93;3.67;;;;;;;;;;5007342;28;20103;-57
2023/08/17 13:31:13;;;;;;;6.30;3.77;;;;;;;;;;5027676;28;20090;-56
2023/08/17 13:33:39;;;;;;;8.82;4.00;;;;;;;;;;5045010;28;20053;-56
2023/08/17 13:36:04;;;;;;;4.67;3.40;;;;;;;;;;5012821;28;20516;-57
2023/08/17 13:38:29;;;;;;;5.93;3.78;;;;;;;;;;5026005;28;20271;-57
2023/08/17 13:40:54;;;;;;;4.30;3.60;;;;;;;;;;5025496;28;20038;-57
2023/08/17 13:43:20;;;;;;;5.80;3.90;;;;;;;;;;5025759;28;20303;-57
2023/08/17 13:45:45;;;;;;;6.60;3.63;;;;;;;;;;5028570;28;20037;-58
2023/08/17 13:48:10;;;;;;;5.63;3.47;;;;;;;;;;5043796;28;20037;-58
2023/08/17 13:50:36;;;;;;;5.53;3.40;;;;;;;;;;5042497;28;20032;-58
2023/08/17 13:53:02;;;;;;;6.03;3.88;;;;;;;;;;5025341;28;20291;-57
2023/08/17 13:55:28;;;;;;;4.78;3.20;;;;;;;;;;5026689;28;20038;-57
2023/08/17 13:57:55;;;;;;;6.60;3.53;;;;;;;;;;5045075;28;20045;-57
2023/08/17 14:00:20;;;;;;;6.63;3.72;;;;;;;;;;5044393;28;20808;-59
2023/08/17 14:02:45;;;;;;;5.40;3.67;;;;;;;;;;5033517;28;20048;-57
2023/08/17 14:05:10;;;;;;;4.37;3.37;;;;;;;;;;5039975;28;20037;-57
2023/08/17 14:07:36;;;;;;;5.23;3.43;;;;;;;;;;5008999;28;20120;-57
2023/08/17 14:10:01;;;;;;;4.60;3.30;;;;;;;;;;5024523;28;20029;-57
2023/08/17 14:12:26;;;;;;;5.47;3.47;;;;;;;;;;5007172;28;20116;-56
2023/08/17 14:14:51;;;;;;;5.30;3.67;;;;;;;;;;5024557;28;20268;-56
2023/08/17 14:17:17;;;;;;;5.00;3.53;;;;;;;;;;5024930;28;20037;-56
2023/08/17 14:19:43;;;;;;;5.17;3.23;;;;;;;;;;5016455;28;20099;-56
2023/08/17 14:22:08;;;;;;;4.82;3.35;;;;;;;;;;5033474;28;20063;-57
2023/08/17 14:24:33;;;;;;;4.93;3.37;;;;;;;;;;5045016;28;20033;-57
2023/08/17 14:26:58;;;;;;;5.40;3.60;;;;;;;;;;5027052;28;20099;-56
2023/08/17 14:29:24;;;;;;;4.87;3.23;;;;;;;;;;5024973;28;20033;-57
2023/08/17 14:31:49;;;;;;;6.10;3.30;;;;;;;;;;5030286;28;20203;-57
2023/08/17 14:34:15;;;;;;;4.37;3.20;;;;;;;;;;5023401;28;20049;-58